Airfield :
LOGIN :

Register | Disclaimer

   EN    FR    IT 

 










Legend :    VFR   Marginal VFR   IFR   Intensive IFR   Very Intensive IFR
Visi :
Ceiling :
>= 8 km
>= 3000ft
5 to 8 km
1000 to 3000 ft
1500m to 5 km
500 to 1000 ft
800 to 1500m
200 to 500 ft
< 800m
< 200 ft
Symbols :   Thunderstorms  Fog  Heavy snow  Heavy precipitations  Wind > 20 kt
SIGMETs :     Misc.  Thunderstorms  Icing  Turbulence  Mountain Waves  Volcanic Ashes






- Airport Elevation : 154 ft
- IATA code : SZZ


EPSC - Szczecin Goleniow

CURRENT METAR :
  • 071930Z VRB03KT CAVOK 11/06 Q1018

EXPIRED METARs :
  • 071900Z 17004KT 140V200 CAVOK 11/06 Q1018
  • 071830Z 17005KT CAVOK 12/07 Q1019
  • 071800Z 18005KT CAVOK 11/07 Q1019
  • 071730Z 16004KT 100V180 CAVOK 10/08 Q1019
  • 071700Z VRB02KT CAVOK 11/09 Q1019

TAF TAF EPSC
Valid from the 07 at 18:00 until the 08 at 18:00 UTC


071730Z 0718/0818 VRB04KT CAVOK
BECMG 0808/0811 27010KT
PROB40 0810/0813 BKN012
TEMPO 0812/0818 28015G25KT -SHRA SCT020CB



MET'MAP, your aeronautical weather chart ! - Copyright ORBIFLY December 2007 - Disclaimer

ORBIFLY MET'MAP TEAM :

Programming & Development : Alexandra Zaïnal
Original concept : Baudouin d'Aumeries
Technical & hardware support : Manuel Goepfert
Assistance : Marc-Olivier Méhu




SOURCES & CREDITS :

   NOAA